Time;durP1;ratioP1;P1;durP2;ratioP2;P2;SDS_P1;SDS_P2;PMS_P1;PMS_P2;Temp;Humidity;BMP_temperature;BMP_pressure;BME280_temperature;BME280_humidity;BME280_pressure;Samples;Min_cycle;Max_cycle;Signal;HPM_P1;HPM_P2
2021/01/26 00:00:30;;;;;;;38.05;25.95;;;77.10;2227.20;;;;;;4914473;29;20028;-74
2021/01/26 00:02:56;;;;;;;40.25;24.88;;;77.10;2227.20;;;;;;4926203;29;20070;-82
2021/01/26 00:05:23;;;;;;;34.67;23.13;;;77.10;2227.20;;;;;;4896231;29;20431;-78
2021/01/26 00:07:48;;;;;;;38.72;25.20;;;77.10;2227.20;;;;;;4917183;29;20495;-79
2021/01/26 00:10:14;;;;;;;34.22;23.73;;;77.10;2227.20;;;;;;4917187;29;20489;-73
2021/01/26 00:12:40;;;;;;;34.40;24.55;;;77.10;2227.20;;;;;;4919205;29;20048;-74
2021/01/26 00:15:07;;;;;;;36.92;26.42;;;77.10;2227.20;;;;;;4920054;29;20478;-82
2021/01/26 00:17:32;;;;;;;34.83;25.48;;;77.10;2227.20;;;;;;4919720;29;20389;-83
2021/01/26 00:19:58;;;;;;;30.88;23.52;;;77.10;2227.20;;;;;;4919366;29;20032;-76
2021/01/26 00:22:24;;;;;;;30.63;21.92;;;77.10;2227.20;;;;;;4919452;29;20040;-74
2021/01/26 00:24:49;;;;;;;34.95;25.90;;;77.10;2227.20;;;;;;4920001;29;20486;-74
2021/01/26 00:27:15;;;;;;;41.35;28.70;;;77.10;2227.20;;;;;;4919619;29;20028;-73
2021/01/26 00:29:41;;;;;;;38.30;28.40;;;77.10;2227.20;;;;;;4922624;29;20109;-82
2021/01/26 00:32:07;;;;;;;33.22;25.05;;;77.10;2227.20;;;;;;4926469;29;20024;-85
2021/01/26 00:34:32;;;;;;;30.70;22.73;;;77.10;2227.20;;;;;;4920046;29;20111;-81
2021/01/26 00:36:58;;;;;;;28.58;21.50;;;77.10;2227.20;;;;;;4919313;29;20055;-86
2021/01/26 00:39:24;;;;;;;31.85;23.48;;;77.20;2227.20;;;;;;4920806;29;20040;-84
2021/01/26 00:41:50;;;;;;;34.15;23.98;;;77.30;2227.20;;;;;;4922560;29;20096;-77
2021/01/26 00:44:16;;;;;;;32.28;22.05;;;77.20;2227.20;;;;;;4927863;29;20043;-81
2021/01/26 00:46:41;;;;;;;31.88;22.80;;;77.20;2227.20;;;;;;4919260;29;20036;-81
2021/01/26 00:49:07;;;;;;;31.38;22.45;;;77.20;2227.20;;;;;;4902733;29;20032;-80
2021/01/26 00:51:33;;;;;;;35.33;24.77;;;77.10;2227.20;;;;;;4925732;29;20036;-87
2021/01/26 00:53:59;;;;;;;37.97;26.17;;;77.00;2227.20;;;;;;4918636;29;20055;-83
2021/01/26 00:56:29;;;;;;;31.00;22.50;;;76.90;2227.20;;;;;;4920022;29;20052;-74
2021/01/26 00:58:54;;;;;;;29.90;21.95;;;76.90;2227.20;;;;;;4924913;29;20028;-74
2021/01/26 01:01:20;;;;;;;32.28;23.17;;;76.90;2227.20;;;;;;4923699;29;20467;-77
2021/01/26 01:03:47;;;;;;;33.28;22.67;;;76.90;2227.20;;;;;;4918989;29;20077;-75
2021/01/26 01:06:14;;;;;;;30.88;21.58;;;76.90;2227.20;;;;;;4924152;29;20125;-76
2021/01/26 01:08:39;;;;;;;31.65;22.48;;;76.80;2227.20;;;;;;4916602;29;20024;-84
2021/01/26 01:11:05;;;;;;;30.65;21.85;;;76.80;2227.20;;;;;;4927268;29;20031;-85
2021/01/26 01:13:30;;;;;;;29.25;21.48;;;76.80;2227.20;;;;;;4923693;29;20032;-86
2021/01/26 01:15:56;;;;;;;31.23;22.40;;;76.80;2227.20;;;;;;4919622;29;20040;-79
2021/01/26 01:18:22;;;;;;;35.83;22.58;;;76.80;2227.20;;;;;;4918361;29;20031;-76
2021/01/26 01:20:47;;;;;;;34.33;22.45;;;76.80;2227.20;;;;;;4918375;29;20035;-81
2021/01/26 01:23:13;;;;;;;35.90;25.02;;;76.80;2227.20;;;;;;4916224;29;20175;-77
2021/01/26 01:25:39;;;;;;;31.02;22.17;;;76.80;2227.20;;;;;;4918799;29;20403;-75
2021/01/26 01:28:05;;;;;;;30.88;22.10;;;76.80;2227.20;;;;;;4918147;29;20115;-77
2021/01/26 01:30:33;;;;;;;33.45;22.05;;;76.90;2227.20;;;;;;4903524;29;20051;-77
2021/01/26 01:33:00;;;;;;;30.85;21.67;;;76.80;2227.20;;;;;;4923742;29;20024;-77
2021/01/26 01:35:26;;;;;;;27.98;20.40;;;76.80;2227.20;;;;;;4919093;29;20060;-81
2021/01/26 01:37:52;;;;;;;29.05;21.30;;;52.10;2227.20;;;;;;4930421;29;20102;-85
2021/01/26 01:40:30;;;;;;;28.58;20.88;;;52.10;2227.20;;;;;;4918582;29;20124;-74
2021/01/26 01:42:56;;;;;;;26.08;19.45;;;52.10;2227.20;;;;;;4920591;29;20048;-83
2021/01/26 01:45:23;;;;;;;28.13;19.70;;;76.80;2227.20;;;;;;4895101;29;20036;-82
2021/01/26 01:47:55;;;;;;;24.00;18.08;;;52.10;2227.20;;;;;;4919021;29;20561;-75
2021/01/26 01:50:28;;;;;;;24.67;17.48;;;76.80;2227.20;;;;;;4919217;29;20055;-81
2021/01/26 01:53:01;;;;;;;23.88;17.80;;;76.80;2227.20;;;;;;4918463;29;20056;-77
2021/01/26 01:55:31;;;;;;;25.52;19.05;;;76.80;2227.20;;;;;;4921371;29;20036;-74
2021/01/26 01:58:05;;;;;;;26.25;19.52;;;76.80;2227.20;;;;;;4917917;29;20478;-82
2021/01/26 02:00:33;;;;;;;27.15;19.48;;;52.10;2227.20;;;;;;4904200;29;20075;-76
2021/01/26 02:03:18;;;;;;;24.50;18.05;;;52.10;2227.20;;;;;;4919732;29;20032;-86
2021/01/26 02:05:44;;;;;;;23.08;16.77;;;52.10;2227.20;;;;;;4931720;29;20020;-82
2021/01/26 02:08:19;;;;;;;24.45;18.15;;;52.00;2227.20;;;;;;4917565;29;20035;-80
2021/01/26 02:10:45;;;;;;;22.42;16.73;;;52.10;2227.20;;;;;;4922278;29;20047;-73
2021/01/26 02:13:11;;;;;;;22.50;16.30;;;52.10;2227.20;;;;;;4923861;29;20036;-86
2021/01/26 02:15:36;;;;;;;25.17;16.58;;;52.10;2227.20;;;;;;4916996;29;20389;-87
2021/01/26 02:18:38;;;;;;;24.52;15.80;;;52.10;2227.20;;;;;;4917868;29;20032;-87
2021/01/26 02:21:22;;;;;;;20.73;15.25;;;52.10;2227.20;;;;;;4918216;29;20062;-76
2021/01/26 02:24:07;;;;;;;21.58;15.05;;;52.10;2227.20;;;;;;4919509;29;20151;-75
2021/01/26 02:26:58;;;;;;;19.50;15.35;;;52.10;2227.20;;;;;;4919652;29;20028;-73
2021/01/26 02:29:55;;;;;;;20.05;15.15;;;52.00;2227.20;;;;;;4917475;29;20039;-79
2021/01/26 02:32:31;;;;;;;21.30;15.13;;;52.10;2227.20;;;;;;4906974;29;20039;-79
2021/01/26 02:35:11;;;;;;;20.88;14.15;;;52.10;2227.20;;;;;;4915307;29;20064;-81
2021/01/26 02:38:25;;;;;;;18.65;14.68;;;52.10;2227.20;;;;;;4911165;29;20032;-76
2021/01/26 02:40:59;;;;;;;18.73;14.95;;;77.30;2227.20;;;;;;4916868;29;20035;-77
2021/01/26 02:43:49;;;;;;;17.98;14.68;;;52.10;2227.20;;;;;;4925279;29;20024;-76
2021/01/26 02:46:20;;;;;;;22.33;16.33;;;52.10;2227.20;;;;;;4920713;29;20060;-76
2021/01/26 02:49:01;;;;;;;21.27;16.23;;;52.00;2227.20;;;;;;4919595;29;20028;-76
2021/01/26 02:51:46;;;;;;;21.33;16.30;;;52.00;2227.20;;;;;;4920301;29;20028;-76
2021/01/26 02:54:21;;;;;;;22.92;16.52;;;51.90;2227.20;;;;;;4908973;29;20102;-86
2021/01/26 02:56:59;;;;;;;21.88;16.85;;;51.90;2227.20;;;;;;4917212;29;20070;-85
2021/01/26 02:59:56;;;;;;;23.15;16.95;;;51.90;2227.20;;;;;;4919444;29;20036;-76
2021/01/26 03:02:34;;;;;;;21.27;16.27;;;51.90;2227.20;;;;;;4914377;29;20068;-83
2021/01/26 03:05:06;;;;;;;21.38;16.92;;;51.90;2227.20;;;;;;4921023;29;20105;-80
2021/01/26 03:07:36;;;;;;;21.85;16.73;;;51.90;2227.20;;;;;;4903298;29;20378;-79
2021/01/26 03:10:16;;;;;;;22.00;16.67;;;51.90;2227.20;;;;;;4918281;29;20032;-77
2021/01/26 03:12:51;;;;;;;21.85;17.13;;;51.90;2227.20;;;;;;4914721;29;20473;-74
2021/01/26 03:16:11;;;;;;;23.70;18.23;;;51.80;2227.20;;;;;;4929148;29;20091;-79
2021/01/26 03:18:53;;;;;;;43.42;28.38;;;51.80;2227.20;;;;;;4888988;29;20572;-80
2021/01/26 03:21:22;;;;;;;27.98;21.02;;;51.80;2227.20;;;;;;4882951;29;20556;-77
2021/01/26 03:24:10;;;;;;;26.42;20.08;;;51.90;2227.20;;;;;;4879437;29;20116;-80
2021/01/26 03:26:39;;;;;;;26.23;19.83;;;51.90;2227.20;;;;;;4864056;29;20041;-74
2021/01/26 03:29:07;;;;;;;24.15;18.05;;;51.80;2227.20;;;;;;4881808;29;20065;-76
2021/01/26 03:31:38;;;;;;;23.70;17.27;;;51.80;2227.20;;;;;;4895464;29;20032;-77
2021/01/26 03:34:07;;;;;;;25.92;18.60;;;51.80;2227.20;;;;;;4885218;29;20424;-74
2021/01/26 03:36:33;;;;;;;25.20;18.50;;;51.80;2227.20;;;;;;4889391;29;20051;-76
2021/01/26 03:39:00;;;;;;;24.33;17.50;;;51.70;2227.20;;;;;;4889065;29;20417;-73
2021/01/26 03:41:26;;;;;;;25.45;17.83;;;51.80;2227.20;;;;;;4886031;29;20037;-83
2021/01/26 03:43:52;;;;;;;25.30;18.85;;;51.80;2227.20;;;;;;4881478;29;20093;-75
2021/01/26 03:46:33;;;;;;;24.02;17.95;;;51.70;2227.20;;;;;;4881071;29;20072;-73
2021/01/26 03:49:17;;;;;;;23.83;17.48;;;51.80;2227.20;;;;;;4883837;29;20037;-74
2021/01/26 03:52:08;;;;;;;24.98;17.50;;;51.80;2227.20;;;;;;4887499;29;20144;-85
2021/01/26 03:54:37;;;;;;;23.83;17.95;;;51.80;2227.20;;;;;;4896958;29;20506;-75
2021/01/26 03:57:29;;;;;;;24.63;17.63;;;51.70;2227.20;;;;;;4921423;29;20036;-79
2021/01/26 04:00:26;;;;;;;26.00;19.25;;;51.70;2227.20;;;;;;4907424;29;20115;-74
2021/01/26 04:03:21;;;;;;;26.85;18.15;;;51.70;2227.20;;;;;;4914718;29;20103;-73
2021/01/26 04:05:57;;;;;;;28.25;20.48;;;51.60;2227.20;;;;;;4919424;29;20493;-73
2021/01/26 04:08:44;;;;;;;25.98;19.05;;;51.60;2227.20;;;;;;4921748;29;20541;-75
2021/01/26 04:11:36;;;;;;;25.23;19.00;;;51.50;2227.20;;;;;;4909326;29;20025;-73
2021/01/26 04:14:03;;;;;;;25.40;19.00;;;51.50;2227.20;;;;;;4875261;29;20113;-87
2021/01/26 04:16:40;;;;;;;28.00;20.85;;;51.40;2227.20;;;;;;4865815;29;20064;-85
2021/01/26 04:19:16;;;;;;;28.55;20.70;;;51.40;2227.20;;;;;;4866813;29;20041;-73
2021/01/26 04:21:49;;;;;;;27.20;20.05;;;51.40;2227.20;;;;;;4870456;29;20035;-73
2021/01/26 04:24:18;;;;;;;32.65;21.13;;;51.40;2227.20;;;;;;4869393;29;20055;-73
2021/01/26 04:26:46;;;;;;;30.00;19.30;;;51.30;2227.20;;;;;;4860605;29;20029;-73
2021/01/26 04:29:12;;;;;;;30.08;21.75;;;51.20;2227.20;;;;;;4867278;29;20429;-73
2021/01/26 04:31:38;;;;;;;27.55;19.38;;;51.20;2227.20;;;;;;4861824;29;20034;-73
2021/01/26 04:34:04;;;;;;;29.90;21.33;;;26.50;2201.60;;;;;;4865137;29;20042;-73
2021/01/26 04:36:30;;;;;;;34.72;24.98;;;26.50;2201.60;;;;;;4864095;29;20507;-73
2021/01/26 04:38:56;;;;;;;31.73;22.30;;;26.50;2201.60;;;;;;4847258;29;20053;-72
2021/01/26 04:41:38;;;;;;;27.70;19.42;;;26.40;2201.60;;;;;;4860723;29;20137;-73
2021/01/26 04:44:28;;;;;;;30.80;21.85;;;26.40;2201.60;;;;;;4864067;29;20079;-72
2021/01/26 04:47:08;;;;;;;33.72;22.00;;;26.30;2201.60;;;;;;4866262;29;20040;-74
2021/01/26 04:50:00;;;;;;;35.55;23.17;;;26.30;2201.60;;;;;;4864788;29;20048;-77
2021/01/26 04:52:31;;;;;;;31.10;21.98;;;26.20;2201.60;;;;;;4919950;29;20052;-72
2021/01/26 04:55:31;;;;;;;34.90;23.80;;;26.20;2201.60;;;;;;4917127;29;20042;-81
2021/01/26 04:58:18;;;;;;;31.77;23.38;;;26.20;2201.60;;;;;;4930837;29;20031;-73
2021/01/26 05:00:49;;;;;;;31.48;22.08;;;26.10;2201.60;;;;;;4918051;29;20024;-72
2021/01/26 05:03:28;;;;;;;33.88;23.75;;;26.00;2201.60;;;;;;4927124;29;20100;-72
2021/01/26 05:06:01;;;;;;;31.92;22.80;;;26.00;2201.60;;;;;;4908178;29;20025;-74
2021/01/26 05:08:38;;;;;;;32.25;23.15;;;25.90;2201.60;;;;;;4913398;29;20027;-73
2021/01/26 05:11:13;;;;;;;38.03;26.08;;;25.90;2201.60;;;;;;4916163;29;20040;-70
2021/01/26 05:14:05;;;;;;;38.17;25.40;;;25.80;2201.60;;;;;;4914906;29;20024;-71
2021/01/26 05:16:39;;;;;;;33.08;22.85;;;25.90;2201.60;;;;;;4919274;29;20115;-73
2021/01/26 05:19:25;;;;;;;34.65;24.25;;;25.80;2201.60;;;;;;4911380;29;20079;-70
2021/01/26 05:22:03;;;;;;;32.92;22.95;;;25.80;2201.60;;;;;;4901449;29;20473;-72
2021/01/26 05:24:44;;;;;;;36.08;24.20;;;25.90;2201.60;;;;;;4914824;29;20040;-70
2021/01/26 05:27:10;;;;;;;43.90;26.80;;;25.80;2201.60;;;;;;4917542;29;20095;-74
2021/01/26 05:29:36;;;;;;;49.40;28.58;;;25.80;2201.60;;;;;;4918496;29;20063;-74
2021/01/26 05:32:05;;;;;;;37.63;23.38;;;25.80;2201.60;;;;;;4901352;29;20454;-73
2021/01/26 05:34:33;;;;;;;32.90;22.45;;;25.80;2201.60;;;;;;4920227;29;20463;-72
2021/01/26 05:37:00;;;;;;;34.83;23.50;;;25.90;2201.60;;;;;;4915390;29;20036;-72
2021/01/26 05:39:42;;;;;;;35.05;23.58;;;25.90;2201.60;;;;;;4914222;29;20070;-70
2021/01/26 05:42:09;;;;;;;34.13;22.75;;;25.90;2201.60;;;;;;4906355;29;20036;-69
2021/01/26 05:44:36;;;;;;;31.42;21.90;;;25.90;2201.60;;;;;;4929817;29;20028;-73
2021/01/26 05:47:23;;;;;;;30.55;21.20;;;25.80;2201.60;;;;;;4917495;29;20020;-73
2021/01/26 05:49:49;;;;;;;29.10;20.20;;;25.80;2201.60;;;;;;4920504;29;20044;-73
2021/01/26 05:52:18;;;;;;;27.73;19.58;;;25.70;2201.60;;;;;;4919300;29;20032;-74
2021/01/26 05:55:13;;;;;;;31.67;20.65;;;25.80;2201.60;;;;;;4936093;29;20032;-74
2021/01/26 05:57:39;;;;;;;29.55;20.45;;;25.80;2201.60;;;;;;4913335;29;20016;-73
2021/01/26 06:00:25;;;;;;;29.50;20.23;;;25.90;2201.60;;;;;;4913626;29;20043;-72
2021/01/26 06:03:12;;;;;;;30.17;20.45;;;25.80;2201.60;;;;;;4921685;29;20111;-74
2021/01/26 06:05:39;;;;;;;27.27;19.67;;;25.80;2201.60;;;;;;4923527;29;20031;-75
2021/01/26 06:08:15;;;;;;;30.63;19.70;;;25.80;2201.60;;;;;;4926197;29;20034;-73
2021/01/26 06:10:45;;;;;;;27.88;19.35;;;25.90;2201.60;;;;;;4918589;29;20027;-76
2021/01/26 06:13:11;;;;;;;31.48;20.65;;;25.80;2201.60;;;;;;4918962;29;20048;-74
2021/01/26 06:15:40;;;;;;;26.25;18.85;;;25.90;2201.60;;;;;;4918806;29;20036;-75
2021/01/26 06:18:13;;;;;;;30.35;20.60;;;25.90;2201.60;;;;;;4918946;29;20020;-74
2021/01/26 06:20:40;;;;;;;32.90;21.73;;;25.90;2201.60;;;;;;4918121;29;20028;-74
2021/01/26 06:23:20;;;;;;;30.63;21.02;;;26.00;2201.60;;;;;;4918552;29;20111;-74
2021/01/26 06:25:52;;;;;;;30.02;20.65;;;26.00;2201.60;;;;;;4918966;29;20083;-75
2021/01/26 06:28:37;;;;;;;28.90;19.90;;;26.10;2201.60;;;;;;4917224;29;20408;-74
2021/01/26 06:31:08;;;;;;;28.52;19.85;;;26.20;2201.60;;;;;;4918347;29;20098;-74
2021/01/26 06:34:05;;;;;;;30.38;21.00;;;26.30;2201.60;;;;;;4905234;29;20390;-74
2021/01/26 06:36:56;;;;;;;29.20;20.48;;;26.30;2201.60;;;;;;4898064;29;20049;-74
2021/01/26 06:39:43;;;;;;;28.60;19.83;;;26.40;2201.60;;;;;;4918079;29;20103;-74
2021/01/26 06:42:36;;;;;;;31.13;19.65;;;26.50;2201.60;;;;;;4914287;29;20113;-73
2021/01/26 06:45:28;;;;;;;28.02;19.50;;;51.20;2227.20;;;;;;4915463;29;20030;-72
2021/01/26 06:48:20;;;;;;;27.85;18.80;;;51.40;2227.20;;;;;;4859507;29;20038;-74
2021/01/26 06:51:15;;;;;;;27.90;19.80;;;51.40;2227.20;;;;;;4821766;29;20424;-80
2021/01/26 06:54:27;;;;;;;30.00;19.27;;;51.50;2227.20;;;;;;4822208;29;20039;-74
2021/01/26 06:57:03;;;;;;;29.95;20.88;;;51.70;2227.20;;;;;;4788951;29;20417;-78
2021/01/26 06:59:58;;;;;;;31.30;20.90;;;51.70;2227.20;;;;;;4788185;29;20058;-71
2021/01/26 07:02:26;;;;;;;31.63;21.17;;;51.70;2227.20;;;;;;4750026;30;20454;-73
2021/01/26 07:05:07;;;;;;;32.35;21.35;;;51.90;2227.20;;;;;;4748722;30;20055;-73
2021/01/26 07:08:10;;;;;;;40.72;26.67;;;51.90;2227.20;;;;;;4754214;30;20044;-77
2021/01/26 07:11:05;;;;;;;30.92;22.33;;;52.00;2227.20;;;;;;4759466;30;20047;-82
2021/01/26 07:13:36;;;;;;;29.05;20.80;;;52.00;2227.20;;;;;;4762805;30;20043;-79
2021/01/26 07:16:23;;;;;;;37.28;25.02;;;52.10;2227.20;;;;;;4764520;30;20052;-83
2021/01/26 07:19:16;;;;;;;33.95;22.67;;;52.10;2227.20;;;;;;4762147;29;20044;-86
2021/01/26 07:21:41;;;;;;;34.78;22.80;;;76.80;2227.20;;;;;;4764666;30;20047;-82
2021/01/26 07:24:41;;;;;;;38.22;25.90;;;77.00;2227.20;;;;;;4757595;30;20051;-77
2021/01/26 07:27:44;;;;;;;31.65;21.15;;;77.50;2227.20;;;;;;4776929;29;20042;-87
2021/01/26 07:30:26;;;;;;;29.38;20.33;;;102.40;2227.20;;;;;;4796038;29;20038;-82
2021/01/26 07:33:02;;;;;;;28.17;19.88;;;77.70;2227.20;;;;;;4823654;29;20038;-74
2021/01/26 07:35:32;;;;;;;28.48;21.05;;;77.50;2227.20;;;;;;4835189;29;20041;-74
2021/01/26 07:38:12;;;;;;;29.13;20.05;;;77.70;2227.20;;;;;;4836298;29;20042;-76
2021/01/26 07:40:45;;;;;;;31.13;20.48;;;77.60;2227.20;;;;;;4911735;29;20065;-75
2021/01/26 07:43:31;;;;;;;27.42;18.33;;;77.60;2227.20;;;;;;4915433;29;20470;-79
2021/01/26 07:46:17;;;;;;;29.13;19.98;;;77.40;2227.20;;;;;;4915113;29;20044;-74
2021/01/26 07:49:21;;;;;;;27.63;19.88;;;77.40;2227.20;;;;;;4915893;29;20115;-87
2021/01/26 07:51:52;;;;;;;30.05;20.02;;;77.40;2227.20;;;;;;4876777;29;20048;-88
2021/01/26 07:54:36;;;;;;;30.42;19.08;;;77.30;2227.20;;;;;;4881126;29;20057;-89
2021/01/26 07:57:04;;;;;;;31.38;20.55;;;77.20;2227.20;;;;;;4876461;29;20044;-84
2021/01/26 07:59:35;;;;;;;28.33;20.30;;;77.20;2227.20;;;;;;4875212;29;20470;-86
2021/01/26 08:02:05;;;;;;;35.53;24.13;;;77.20;2227.20;;;;;;4878390;29;20037;-88
2021/01/26 08:04:40;;;;;;;31.00;21.98;;;77.30;2227.20;;;;;;4877379;29;20033;-86
2021/01/26 08:07:08;;;;;;;32.22;20.85;;;77.20;2227.20;;;;;;4872202;29;20533;-85
2021/01/26 08:09:49;;;;;;;37.63;25.55;;;77.30;2227.20;;;;;;4884763;29;20124;-87
2021/01/26 08:12:42;;;;;;;31.95;20.70;;;77.10;2227.20;;;;;;4886113;29;20038;-89
2021/01/26 08:15:16;;;;;;;38.72;25.25;;;77.10;2227.20;;;;;;4888433;29;20053;-90
2021/01/26 08:17:43;;;;;;;31.02;22.08;;;77.20;2227.20;;;;;;4880937;29;20029;-83
2021/01/26 08:20:24;;;;;;;30.55;20.63;;;77.10;2227.20;;;;;;4898989;29;20036;-79
2021/01/26 08:23:21;;;;;;;35.55;24.40;;;77.20;2227.20;;;;;;4900357;29;20028;-82
2021/01/26 08:25:53;;;;;;;32.03;20.88;;;77.20;2227.20;;;;;;4892445;29;20033;-73
2021/01/26 08:28:34;;;;;;;33.83;23.08;;;77.10;2227.20;;;;;;4899567;29;20044;-77
2021/01/26 08:31:01;;;;;;;34.08;23.33;;;77.10;2227.20;;;;;;4916426;29;20029;-75
2021/01/26 08:33:29;;;;;;;32.72;21.55;;;77.10;2227.20;;;;;;4916787;29;20115;-75
2021/01/26 08:36:27;;;;;;;32.58;22.35;;;77.10;2227.20;;;;;;4919257;29;20072;-79
2021/01/26 08:39:03;;;;;;;34.08;23.50;;;77.10;2227.20;;;;;;4908402;29;20020;-84
2021/01/26 08:41:51;;;;;;;35.40;22.58;;;77.10;2227.20;;;;;;4920521;29;20159;-80
2021/01/26 08:45:13;;;;;;;34.75;21.17;;;77.30;2227.20;;;;;;4931857;29;20087;-90
2021/01/26 08:48:23;;;;;;;30.02;21.10;;;77.30;2227.20;;;;;;4885402;29;20022;-72
2021/01/26 08:51:23;;;;;;;35.42;23.00;;;77.30;2227.20;;;;;;4825366;29;20100;-75
2021/01/26 08:53:51;;;;;;;31.65;22.55;;;77.30;2227.20;;;;;;4829236;29;20068;-85
2021/01/26 08:56:23;;;;;;;30.20;21.05;;;77.30;2227.20;;;;;;4824752;29;20034;-91
2021/01/26 08:58:51;;;;;;;48.47;31.00;;;77.40;2227.20;;;;;;4822997;29;20057;-91
2021/01/26 09:01:23;;;;;;;41.88;26.13;;;77.40;2227.20;;;;;;4842452;29;20047;-84
2021/01/26 09:03:56;;;;;;;31.80;22.00;;;77.50;2227.20;;;;;;4815344;29;20063;-86
2021/01/26 09:06:42;;;;;;;31.70;21.27;;;77.50;2227.20;;;;;;4818749;29;20061;-90
2021/01/26 09:09:23;;;;;;;43.42;24.38;;;77.50;2227.20;;;;;;4810152;29;20095;-72
2021/01/26 09:11:55;;;;;;;40.83;24.08;;;77.50;2227.20;;;;;;4805132;29;20119;-85
2021/01/26 09:14:44;;;;;;;33.03;22.13;;;77.50;2227.20;;;;;;4810857;29;20039;-76
2021/01/26 09:17:22;;;;;;;27.67;20.00;;;77.60;2227.20;;;;;;4804349;29;20054;-73
2021/01/26 09:19:54;;;;;;;31.83;20.90;;;77.60;2227.20;;;;;;4803771;29;20043;-73
2021/01/26 09:22:26;;;;;;;33.50;22.38;;;102.40;2227.20;;;;;;4814726;29;20045;-80
2021/01/26 09:25:14;;;;;;;40.58;26.30;;;102.40;2227.20;;;;;;4823142;29;20121;-72
2021/01/26 09:27:41;;;;;;;70.57;45.88;;;102.50;2227.20;;;;;;4886521;29;20040;-81
2021/01/26 09:30:18;;;;;;;46.92;30.60;;;102.60;2201.60;;;;;;4900000;29;20081;-79
2021/01/26 09:33:06;;;;;;;63.72;41.97;;;102.60;2201.60;;;;;;4912003;29;20036;-83
2021/01/26 09:35:39;;;;;;;27.48;18.38;;;102.70;2150.40;;;;;;4884019;29;20048;-90
2021/01/26 09:38:10;;;;;;;29.50;21.98;;;102.60;2124.80;;;;;;4901151;29;20048;-84
2021/01/26 09:40:38;;;;;;;33.50;22.42;;;102.50;2176.00;;;;;;4894744;29;20111;-87
2021/01/26 09:43:10;;;;;;;30.05;19.83;;;102.70;2150.40;;;;;;4899949;29;20036;-85
2021/01/26 09:45:36;;;;;;;28.75;18.83;;;102.80;2150.40;;;;;;4906060;29;20035;-82
2021/01/26 09:48:02;;;;;;;27.00;19.48;;;102.80;2099.20;;;;;;4899730;29;20033;-85
2021/01/26 09:50:28;;;;;;;29.10;20.33;;;103.00;2124.80;;;;;;4910307;29;20510;-83
2021/01/26 09:53:00;;;;;;;34.25;19.52;;;102.90;2124.80;;;;;;4907680;29;20048;-88
2021/01/26 09:55:27;;;;;;;33.25;20.25;;;103.00;2099.20;;;;;;4924340;29;20032;-89
2021/01/26 09:57:55;;;;;;;35.47;22.90;;;103.20;2099.20;;;;;;4917376;29;20021;-73
2021/01/26 10:00:24;;;;;;;29.33;19.45;;;103.30;2073.60;;;;;;4918971;29;20048;-74
2021/01/26 10:02:59;;;;;;;34.50;20.42;;;103.30;2048.00;;;;;;4926975;29;20046;-74
2021/01/26 10:05:27;;;;;;;30.42;19.77;;;103.20;2048.00;;;;;;4918648;29;20039;-82
2021/01/26 10:08:20;;;;;;;36.78;22.10;;;128.00;2022.40;;;;;;4924327;29;20042;-75
2021/01/26 10:10:46;;;;;;;29.80;19.15;;;128.10;2073.60;;;;;;4915887;29;20028;-90
2021/01/26 10:13:26;;;;;;;29.05;18.85;;;128.10;2048.00;;;;;;4917811;29;20020;-90
2021/01/26 10:15:53;;;;;;;34.72;22.20;;;103.30;2022.40;;;;;;4918107;29;20044;-89
2021/01/26 10:18:33;;;;;;;34.90;22.08;;;128.10;2099.20;;;;;;4924690;29;20434;-90
2021/01/26 10:21:06;;;;;;;32.42;21.30;;;128.30;2073.60;;;;;;4918828;29;20439;-90
2021/01/26 10:23:43;;;;;;;29.13;19.43;;;128.30;2048.00;;;;;;4918474;29;20020;-84
2021/01/26 10:26:28;;;;;;;30.77;21.25;;;128.40;2048.00;;;;;;4919640;29;20074;-90
2021/01/26 10:29:00;;;;;;;40.80;26.83;;;128.30;1996.80;;;;;;4922024;29;20110;-77
2021/01/26 10:31:27;;;;;;;35.83;20.27;;;128.20;2073.60;;;;;;4911166;29;20379;-76
2021/01/26 10:33:53;;;;;;;29.33;18.73;;;128.40;2073.60;;;;;;4914129;29;20114;-76
2021/01/26 10:36:24;;;;;;;26.40;18.17;;;128.30;2022.40;;;;;;4914160;29;20115;-84
2021/01/26 10:38:51;;;;;;;26.92;20.13;;;128.20;2022.40;;;;;;4911181;29;20028;-81
2021/01/26 10:41:32;;;;;;;30.30;19.50;;;128.00;2022.40;;;;;;4916529;29;20043;-80
2021/01/26 10:44:09;;;;;;;29.00;21.58;;;128.00;2048.00;;;;;;4927606;29;20027;-72
2021/01/26 10:46:41;;;;;;;27.90;20.45;;;128.10;2022.40;;;;;;4917350;29;20047;-93
2021/01/26 10:49:24;;;;;;;29.52;21.05;;;128.30;2073.60;;;;;;4915678;29;20036;-85
2021/01/26 10:51:49;;;;;;;31.35;19.92;;;128.40;2048.00;;;;;;4909931;29;20071;-80
2021/01/26 10:54:15;;;;;;;31.33;18.85;;;128.20;2022.40;;;;;;4912558;29;20055;-81
2021/01/26 10:56:44;;;;;;;27.45;18.17;;;128.30;2022.40;;;;;;4928408;29;20103;-84
2021/01/26 10:59:10;;;;;;;38.95;21.42;;;128.30;1996.80;;;;;;4917046;29;20036;-79
2021/01/26 11:01:37;;;;;;;28.00;16.50;;;128.30;2022.40;;;;;;4917087;29;20032;-84
2021/01/26 11:04:03;;;;;;;27.42;18.35;;;128.20;1945.60;;;;;;4918057;29;20114;-86
2021/01/26 11:06:28;;;;;;;29.10;18.15;;;128.00;1945.60;;;;;;4897061;29;20129;-85
2021/01/26 11:08:54;;;;;;;32.22;19.17;;;103.30;1971.20;;;;;;4912304;29;20071;-86
2021/01/26 11:11:26;;;;;;;27.92;18.48;;;128.00;1996.80;;;;;;4912291;29;20118;-75
2021/01/26 11:13:52;;;;;;;27.90;17.55;;;128.10;2022.40;;;;;;4912124;29;20028;-91
2021/01/26 11:16:19;;;;;;;29.27;19.88;;;128.30;1945.60;;;;;;4912116;29;20036;-87
2021/01/26 11:18:45;;;;;;;24.27;16.40;;;128.10;1945.60;;;;;;4914484;29;20032;-81
2021/01/26 11:21:11;;;;;;;24.55;17.13;;;128.20;1945.60;;;;;;4916360;29;20024;-85
2021/01/26 11:23:37;;;;;;;23.42;15.50;;;128.00;1945.60;;;;;;4925384;29;20093;-82
2021/01/26 11:26:04;;;;;;;22.50;15.10;;;103.30;1868.80;;;;;;4927495;29;20032;-88
2021/01/26 11:28:30;;;;;;;24.40;16.15;;;103.10;1894.40;;;;;;4927944;29;20438;-72
2021/01/26 11:30:56;;;;;;;24.70;16.92;;;103.00;1945.60;;;;;;4925968;29;20032;-72
2021/01/26 11:33:22;;;;;;;27.13;17.02;;;103.10;1996.80;;;;;;4924473;29;20027;-78
2021/01/26 11:35:48;;;;;;;23.02;16.00;;;103.10;1971.20;;;;;;4926255;29;20039;-83
2021/01/26 11:38:14;;;;;;;22.08;15.13;;;103.10;1971.20;;;;;;4917560;29;20146;-85
2021/01/26 11:40:40;;;;;;;23.13;15.65;;;103.10;1945.60;;;;;;4916062;29;20028;-89
2021/01/26 11:43:05;;;;;;;20.35;14.23;;;103.10;1920.00;;;;;;4914017;29;20032;-93
2021/01/26 11:45:34;;;;;;;24.35;14.90;;;103.10;1894.40;;;;;;4912180;29;20755;-92
2021/01/26 11:48:02;;;;;;;24.65;15.20;;;103.10;1894.40;;;;;;4915032;29;20096;-75
2021/01/26 11:50:27;;;;;;;23.48;16.02;;;103.30;1894.40;;;;;;4912051;29;20063;-75
2021/01/26 11:52:53;;;;;;;29.35;16.98;;;103.30;1894.40;;;;;;4912379;29;20075;-72
2021/01/26 11:55:23;;;;;;;24.23;15.85;;;103.20;1920.00;;;;;;4914328;29;20043;-76
2021/01/26 11:57:49;;;;;;;26.13;16.38;;;103.20;1945.60;;;;;;4899678;29;20104;-79
2021/01/26 12:00:21;;;;;;;20.13;13.93;;;103.10;1894.40;;;;;;4911648;29;20071;-79
2021/01/26 12:02:48;;;;;;;24.35;15.00;;;103.00;1868.80;;;;;;4910095;29;20067;-75
2021/01/26 12:05:15;;;;;;;21.10;15.20;;;102.90;1920.00;;;;;;4913534;29;20114;-80
2021/01/26 12:07:40;;;;;;;23.50;15.32;;;103.10;1920.00;;;;;;4911135;29;20026;-84
2021/01/26 12:10:07;;;;;;;25.38;15.75;;;103.10;1920.00;;;;;;4912147;29;20088;-89
2021/01/26 12:12:33;;;;;;;22.60;15.38;;;103.20;1868.80;;;;;;4915154;29;20024;-79
2021/01/26 12:14:59;;;;;;;19.67;13.38;;;103.20;1894.40;;;;;;4909944;29;20040;-90
2021/01/26 12:17:25;;;;;;;25.08;15.05;;;103.20;1868.80;;;;;;4915958;29;20055;-74
2021/01/26 12:19:51;;;;;;;22.17;15.35;;;103.20;1920.00;;;;;;4912309;29;20064;-88
2021/01/26 12:22:16;;;;;;;21.88;14.05;;;103.20;1868.80;;;;;;4919132;29;20032;-75
2021/01/26 12:24:42;;;;;;;23.08;13.70;;;103.30;1868.80;;;;;;4921380;29;20035;-91
2021/01/26 12:27:08;;;;;;;21.92;13.88;;;103.20;1894.40;;;;;;4912745;29;20079;-76
2021/01/26 12:29:34;;;;;;;25.75;16.80;;;103.20;1894.40;;;;;;4917617;29;20104;-86
2021/01/26 12:32:00;;;;;;;18.90;12.45;;;103.10;1868.80;;;;;;4916100;29;20474;-75
2021/01/26 12:34:26;;;;;;;19.75;12.75;;;103.00;1868.80;;;;;;4915881;29;20032;-78
2021/01/26 12:36:53;;;;;;;22.27;14.50;;;102.90;1843.20;;;;;;4914864;29;20569;-77
2021/01/26 12:39:19;;;;;;;24.77;16.30;;;103.00;1894.40;;;;;;4911487;29;20037;-76
2021/01/26 12:41:45;;;;;;;27.67;14.52;;;103.10;1894.40;;;;;;4919893;29;20092;-79